createdAt,value
2023-04-18T00:00:00.717Z,94.23
2023-04-18T00:01:00.687Z,94.31
2023-04-18T00:02:00.783Z,94.13
2023-04-18T00:03:03.337Z,94.18
2023-04-18T00:04:00.756Z,94.23
2023-04-18T00:05:00.719Z,94.31
2023-04-18T00:06:00.626Z,94.21
2023-04-18T00:07:00.644Z,94.29
2023-04-18T00:08:00.615Z,94.31
2023-04-18T00:09:00.643Z,94.31
2023-04-18T00:10:00.591Z,94.28
2023-04-18T00:11:00.573Z,94.36
2023-04-18T00:12:00.549Z,94.34
2023-04-18T00:13:00.557Z,94.42
2023-04-18T00:14:00.535Z,94.44
2023-04-18T00:15:00.532Z,94.42
2023-04-18T00:16:00.511Z,94.28
2023-04-18T00:17:00.543Z,94.19
2023-04-18T00:18:00.520Z,94.13
2023-04-18T00:19:00.470Z,94.20
2023-04-18T00:20:00.464Z,94.21
2023-04-18T00:21:00.448Z,94.01
2023-04-18T00:22:00.421Z,94.01
2023-04-18T00:23:00.414Z,94.10
2023-04-18T00:24:00.411Z,94.07
2023-04-18T00:25:00.405Z,94.20
2023-04-18T00:26:00.372Z,94.30
2023-04-18T00:27:00.392Z,94.46
2023-04-18T00:28:00.344Z,94.47
2023-04-18T00:29:00.332Z,94.54
2023-04-18T00:30:00.359Z,94.54
2023-04-18T00:31:00.386Z,94.40
2023-04-18T00:32:00.300Z,94.15
2023-04-18T00:33:00.421Z,93.92
2023-04-18T00:34:00.271Z,93.84
2023-04-18T00:35:00.281Z,93.85
2023-04-18T00:36:00.258Z,93.80
2023-04-18T00:37:00.244Z,93.83
2023-04-18T00:38:00.213Z,93.78
2023-04-18T00:39:00.241Z,93.57
2023-04-18T00:40:00.245Z,93.53
2023-04-18T00:41:00.201Z,93.60
2023-04-18T00:42:00.166Z,93.58
2023-04-18T00:43:00.149Z,93.29
2023-04-18T00:44:00.181Z,93.10
2023-04-18T00:45:00.200Z,93.11
2023-04-18T00:46:00.166Z,93.22
2023-04-18T00:47:00.153Z,93.19
2023-04-18T00:48:00.185Z,93.31
2023-04-18T00:49:00.129Z,93.48
2023-04-18T00:50:00.091Z,93.56
2023-04-18T00:51:00.086Z,93.56
2023-04-18T00:52:00.071Z,93.63
2023-04-18T00:53:00.034Z,93.66
2023-04-18T00:54:00.009Z,93.59
2023-04-18T00:55:00.026Z,93.71
2023-04-18T00:56:00.041Z,93.69
2023-04-18T00:56:59.992Z,93.65
2023-04-18T00:57:59.960Z,93.63
2023-04-18T00:58:59.958Z,93.59
2023-04-18T00:59:59.953Z,93.66
2023-04-18T01:00:59.939Z,93.68
2023-04-18T01:01:59.993Z,93.77
2023-04-18T01:03:57.931Z,92.92
2023-04-18T01:04:58.796Z,93.69
2023-04-18T01:05:58.780Z,93.65
2023-04-18T01:06:58.762Z,93.59
2023-04-18T01:07:58.784Z,93.34
2023-04-18T01:08:58.761Z,93.34
2023-04-18T01:09:58.728Z,93.40
2023-04-18T01:10:58.770Z,93.62
2023-04-18T01:11:58.703Z,93.60
2023-04-18T01:12:58.695Z,93.76
2023-04-18T01:13:58.680Z,93.60
2023-04-18T01:14:58.696Z,93.60
2023-04-18T01:15:58.727Z,93.54
2023-04-18T01:16:58.689Z,93.44
2023-04-18T01:17:58.669Z,93.21
2023-04-18T01:18:58.617Z,93.19
2023-04-18T01:19:58.596Z,93.13
2023-04-18T01:20:58.651Z,92.79
2023-04-18T01:21:58.580Z,92.64
2023-04-18T01:22:58.588Z,92.79
2023-04-18T01:23:58.554Z,92.69
2023-04-18T01:24:58.544Z,92.68
2023-04-18T01:25:58.532Z,92.78
2023-04-18T01:26:58.544Z,92.76
2023-04-18T01:27:58.515Z,92.85
2023-04-18T01:28:58.503Z,93.04
2023-04-18T01:29:58.472Z,93.05
2023-04-18T01:30:58.480Z,93.06
2023-04-18T01:31:58.496Z,93.03
2023-04-18T01:32:58.492Z,93.06
2023-04-18T01:33:58.426Z,92.84
2023-04-18T01:34:58.473Z,92.73
2023-04-18T01:35:58.410Z,92.78
2023-04-18T01:36:58.381Z,92.90
2023-04-18T01:37:58.392Z,92.96
2023-04-18T01:38:58.367Z,92.99
2023-04-18T01:39:58.352Z,93.11
2023-04-18T01:40:58.374Z,93.10
2023-04-18T01:41:58.326Z,93.12
2023-04-18T01:42:58.307Z,93.13
2023-04-18T01:43:58.294Z,93.21
2023-04-18T01:44:58.328Z,93.12
2023-04-18T01:45:58.285Z,93.17
2023-04-18T01:46:58.387Z,93.19
2023-04-18T01:47:58.306Z,93.05
2023-04-18T01:48:58.239Z,93.02
2023-04-18T01:49:58.224Z,92.91
2023-04-18T01:50:58.248Z,92.96
2023-04-18T01:51:58.217Z,92.99
2023-04-18T01:52:58.188Z,93.07
2023-04-18T01:53:58.180Z,93.11
2023-04-18T01:54:58.184Z,93.18
2023-04-18T01:55:58.147Z,93.21
2023-04-18T01:56:58.168Z,93.21
2023-04-18T01:57:58.133Z,93.16
2023-04-18T01:58:58.121Z,93.22
2023-04-18T01:59:58.087Z,93.29
2023-04-18T02:00:58.081Z,93.43
2023-04-18T02:01:58.159Z,93.44
2023-04-18T02:02:58.237Z,93.33
2023-04-18T02:03:58.142Z,93.47
2023-04-18T02:04:58.031Z,93.55
2023-04-18T02:05:58.017Z,93.47
2023-04-18T02:06:57.990Z,93.56
2023-04-18T02:07:58.014Z,93.60
2023-04-18T02:08:57.991Z,93.60
2023-04-18T02:09:57.985Z,93.63
2023-04-18T02:10:57.988Z,93.61
2023-04-18T02:11:57.926Z,93.66
2023-04-18T02:12:57.951Z,93.68
2023-04-18T02:13:57.970Z,93.61
2023-04-18T02:14:57.905Z,93.70
2023-04-18T02:15:57.942Z,93.68
2023-04-18T02:16:58.114Z,93.74
2023-04-18T02:17:57.878Z,93.81
2023-04-18T02:18:57.946Z,93.61
2023-04-18T02:19:57.869Z,93.55
2023-04-18T02:20:57.873Z,93.72
2023-04-18T02:21:57.839Z,93.82
2023-04-18T02:22:57.842Z,93.81
2023-04-18T02:23:57.800Z,93.84
2023-04-18T02:24:57.801Z,93.86
2023-04-18T02:25:57.772Z,93.94
2023-04-18T02:26:57.783Z,93.86
2023-04-18T02:27:57.760Z,93.91
2023-04-18T02:28:57.728Z,94.02
2023-04-18T02:29:57.717Z,93.98
2023-04-18T02:30:57.715Z,94.01
2023-04-18T02:31:57.735Z,93.98
2023-04-18T02:32:57.698Z,93.98
2023-04-18T02:33:57.674Z,93.95
2023-04-18T02:34:57.668Z,94.11
2023-04-18T02:35:57.716Z,94.17
2023-04-18T02:36:57.663Z,94.06
2023-04-18T02:37:57.620Z,94.09
2023-04-18T02:38:57.659Z,94.00
2023-04-18T02:39:57.594Z,94.09
2023-04-18T02:40:57.578Z,94.15
2023-04-18T02:41:57.562Z,94.17
2023-04-18T02:42:57.556Z,94.15
2023-04-18T02:43:57.524Z,94.11
2023-04-18T02:44:57.571Z,94.11
2023-04-18T02:45:57.539Z,94.07
2023-04-18T02:46:57.552Z,94.03
2023-04-18T02:47:57.539Z,94.15
2023-04-18T02:48:57.474Z,94.13
2023-04-18T02:49:57.491Z,94.05
2023-04-18T02:50:57.541Z,94.12
2023-04-18T02:51:57.434Z,94.17
2023-04-18T02:52:57.403Z,94.19
2023-04-18T02:53:57.403Z,94.29
2023-04-18T02:54:57.399Z,94.28
2023-04-18T02:55:57.399Z,94.34
2023-04-18T02:56:57.393Z,94.39
2023-04-18T02:57:57.399Z,94.44
2023-04-18T02:58:57.340Z,94.44
2023-04-18T02:59:57.365Z,94.53
2023-04-18T03:00:57.348Z,94.49
2023-04-18T03:01:57.420Z,94.53
2023-04-18T03:02:57.342Z,94.65
2023-04-18T03:03:57.263Z,94.79
2023-04-18T03:04:57.279Z,94.86
2023-04-18T03:05:57.261Z,94.92
2023-04-18T03:06:57.237Z,95.02
2023-04-18T03:07:57.228Z,95.03
2023-04-18T03:08:57.247Z,95.14
2023-04-18T03:09:57.244Z,95.16
2023-04-18T03:10:57.224Z,95.24
2023-04-18T03:11:57.186Z,95.28
2023-04-18T03:12:57.148Z,95.37
2023-04-18T03:13:57.162Z,95.48
2023-04-18T03:14:57.182Z,95.54
2023-04-18T03:15:57.207Z,95.66
2023-04-18T03:16:57.128Z,95.74
2023-04-18T03:17:57.186Z,95.77
2023-04-18T03:18:57.102Z,95.71
2023-04-18T03:19:57.073Z,95.63
2023-04-18T03:20:57.084Z,95.59
2023-04-18T03:21:57.055Z,95.53
2023-04-18T03:22:57.064Z,95.52
2023-04-18T03:23:57.015Z,95.42
2023-04-18T03:24:57.008Z,95.36
2023-04-18T03:25:57.004Z,95.39
2023-04-18T03:26:56.988Z,95.45
2023-04-18T03:27:56.967Z,95.53
2023-04-18T03:28:56.974Z,95.61
2023-04-18T03:29:56.961Z,95.63
2023-04-18T03:30:56.976Z,95.64
2023-04-18T03:31:56.953Z,95.63
2023-04-18T03:32:57.012Z,95.61
2023-04-18T03:33:56.913Z,95.62
2023-04-18T03:34:56.889Z,95.64
2023-04-18T03:35:56.880Z,95.64
2023-04-18T03:36:56.863Z,95.68
2023-04-18T03:37:56.900Z,95.67
2023-04-18T03:38:56.854Z,95.72
2023-04-18T03:39:56.815Z,95.80
2023-04-18T03:40:56.823Z,95.78
2023-04-18T03:41:56.827Z,95.83
2023-04-18T03:42:56.854Z,95.82
2023-04-18T03:43:56.753Z,95.84
2023-04-18T03:44:56.843Z,95.86
2023-04-18T03:45:56.814Z,95.87
2023-04-18T03:46:56.752Z,95.93
2023-04-18T03:47:56.793Z,95.92
2023-04-18T03:48:56.748Z,96.00
2023-04-18T03:49:56.726Z,96.06
2023-04-18T03:50:56.721Z,95.98
2023-04-18T03:51:56.684Z,96.03
2023-04-18T03:52:56.653Z,95.93
2023-04-18T03:53:56.645Z,95.98
2023-04-18T03:54:56.640Z,95.99
2023-04-18T03:55:56.632Z,95.99
2023-04-18T03:56:56.620Z,96.05
2023-04-18T03:57:56.591Z,96.08
2023-04-18T03:58:56.577Z,96.06
2023-04-18T03:59:56.598Z,96.12
2023-04-18T04:00:56.586Z,96.13
2023-04-18T04:01:56.640Z,96.08
2023-04-18T04:02:56.897Z,96.06
2023-04-18T04:03:56.605Z,95.98
2023-04-18T04:04:56.553Z,95.98
2023-04-18T04:05:56.508Z,95.91
2023-04-18T04:06:56.480Z,95.90
2023-04-18T04:07:56.557Z,95.88
2023-04-18T04:08:56.465Z,95.83
2023-04-18T04:09:56.436Z,95.87
2023-04-18T04:10:56.435Z,95.76
2023-04-18T04:11:56.452Z,95.84
2023-04-18T04:12:56.438Z,95.73
2023-04-18T04:13:56.406Z,95.72
2023-04-18T04:14:56.370Z,95.66
2023-04-18T04:15:56.497Z,95.72
2023-04-18T04:16:56.433Z,95.60
2023-04-18T04:17:56.368Z,95.43
2023-04-18T04:18:56.342Z,95.42
2023-04-18T04:19:56.323Z,95.36
2023-04-18T04:20:56.308Z,95.40
2023-04-18T04:21:56.303Z,95.43
2023-04-18T04:22:56.325Z,95.34
2023-04-18T04:23:56.268Z,95.36
2023-04-18T04:24:56.340Z,95.25
2023-04-18T04:25:56.299Z,95.17
2023-04-18T04:26:56.236Z,95.13
2023-04-18T04:27:56.275Z,95.22
2023-04-18T04:28:56.205Z,95.23
2023-04-18T04:29:56.174Z,95.27
2023-04-18T04:30:56.217Z,95.22
2023-04-18T04:31:56.198Z,95.23
2023-04-18T04:32:56.202Z,95.23
2023-04-18T04:33:56.144Z,95.18
2023-04-18T04:34:56.128Z,95.16
2023-04-18T04:35:56.128Z,95.13
2023-04-18T04:36:56.093Z,95.07
2023-04-18T04:37:56.084Z,95.09
2023-04-18T04:38:56.106Z,95.11
2023-04-18T04:39:56.109Z,95.18
2023-04-18T04:40:56.036Z,95.21
2023-04-18T04:41:56.124Z,95.18
2023-04-18T04:42:56.007Z,95.20
2023-04-18T04:43:56.014Z,95.24
2023-04-18T04:44:56.045Z,95.21
2023-04-18T04:45:56.110Z,95.16
2023-04-18T04:46:56.004Z,95.09
2023-04-18T04:47:55.979Z,94.98
2023-04-18T04:48:55.956Z,95.01
2023-04-18T04:49:56.003Z,94.99
2023-04-18T04:50:55.945Z,94.90
2023-04-18T04:51:55.944Z,94.78
2023-04-18T04:52:55.902Z,94.74
2023-04-18T04:53:55.922Z,94.70
2023-04-18T04:54:55.915Z,94.62
2023-04-18T04:55:55.887Z,94.57
2023-04-18T04:56:55.860Z,94.52
2023-04-18T04:57:55.829Z,94.44
2023-04-18T04:58:55.832Z,94.35
2023-04-18T04:59:55.810Z,94.41
2023-04-18T05:00:55.876Z,94.40
2023-04-18T05:01:55.810Z,94.43
2023-04-18T05:02:55.910Z,94.39
2023-04-18T05:03:55.966Z,94.45
2023-04-18T05:04:55.747Z,94.49
2023-04-18T05:05:55.725Z,94.44
2023-04-18T05:06:55.721Z,94.42
2023-04-18T05:07:55.725Z,94.48
2023-04-18T05:08:55.706Z,94.39
2023-04-18T05:09:55.680Z,94.32
2023-04-18T05:10:55.661Z,94.30
2023-04-18T05:11:55.706Z,94.22
2023-04-18T05:12:55.683Z,94.25
2023-04-18T05:13:55.652Z,94.21
2023-04-18T05:14:55.630Z,94.06
2023-04-18T05:15:55.660Z,94.07
2023-04-18T05:16:55.689Z,94.07
2023-04-18T05:17:55.575Z,93.95
2023-04-18T05:18:55.578Z,93.86
2023-04-18T05:19:55.634Z,93.68
2023-04-18T05:20:55.534Z,93.64
2023-04-18T05:21:55.581Z,93.64
2023-04-18T05:22:55.521Z,93.59
2023-04-18T05:23:55.500Z,93.64
2023-04-18T05:24:55.549Z,93.69
2023-04-18T05:25:55.514Z,93.78
2023-04-18T05:26:55.477Z,93.67
2023-04-18T05:27:55.444Z,93.62
2023-04-18T05:28:55.477Z,93.63
2023-04-18T05:29:55.454Z,93.52
2023-04-18T05:30:55.534Z,93.47
2023-04-18T05:31:55.431Z,93.41
2023-04-18T05:32:55.474Z,93.45
2023-04-18T05:33:55.413Z,93.29
2023-04-18T05:34:55.385Z,93.23
2023-04-18T05:35:55.392Z,93.23
2023-04-18T05:36:55.349Z,92.87
2023-04-18T05:37:55.344Z,92.83
2023-04-18T05:38:55.329Z,92.79
2023-04-18T05:39:56.039Z,92.71
2023-04-18T05:40:55.289Z,92.67
2023-04-18T05:41:55.272Z,92.40
2023-04-18T05:42:55.276Z,92.25
2023-04-18T05:44:16.750Z,92.29
2023-04-18T05:44:55.273Z,92.39
2023-04-18T05:45:57.754Z,92.41
2023-04-18T05:46:55.207Z,92.43
2023-04-18T05:47:55.452Z,92.27
2023-04-18T05:48:55.221Z,92.05
2023-04-18T05:49:55.208Z,92.07
2023-04-18T05:50:55.158Z,92.21
2023-04-18T05:51:55.179Z,92.29
2023-04-18T05:52:55.132Z,92.30
2023-04-18T05:53:55.116Z,92.23
2023-04-18T05:54:55.101Z,92.19
2023-04-18T05:55:55.113Z,92.15
2023-04-18T05:56:55.123Z,92.05
2023-04-18T05:57:55.057Z,92.33
2023-04-18T05:58:55.068Z,92.24
2023-04-18T05:59:55.184Z,92.15
2023-04-18T06:00:55.141Z,91.97
2023-04-18T06:01:55.096Z,92.05
2023-04-18T06:02:55.266Z,91.98
2023-04-18T06:03:55.230Z,91.99
2023-04-18T06:04:55.403Z,91.99
2023-04-18T06:05:55.055Z,92.04
2023-04-18T06:06:54.970Z,92.05
2023-04-18T06:07:54.993Z,92.00
2023-04-18T06:08:54.940Z,92.16
2023-04-18T06:09:54.961Z,92.16
2023-04-18T06:10:54.960Z,92.03
2023-04-18T06:11:54.900Z,92.04
2023-04-18T06:12:54.943Z,92.16
2023-04-18T06:13:54.889Z,92.18
2023-04-18T06:14:54.871Z,92.10
2023-04-18T06:15:54.959Z,92.08
2023-04-18T06:16:54.857Z,91.98
2023-04-18T06:17:54.880Z,91.86
2023-04-18T06:18:55.008Z,91.72
2023-04-18T06:19:55.519Z,91.87
2023-04-18T06:20:54.824Z,91.93
2023-04-18T06:21:54.765Z,92.07
2023-04-18T06:22:54.822Z,92.17
2023-04-18T06:23:55.127Z,92.17
2023-04-18T06:24:54.737Z,92.10
2023-04-18T06:25:54.755Z,92.13
2023-04-18T06:26:54.756Z,92.15
2023-04-18T06:27:54.684Z,92.21
2023-04-18T06:28:54.728Z,92.06
2023-04-18T06:29:54.696Z,91.93
2023-04-18T06:30:54.740Z,91.98
2023-04-18T06:31:54.696Z,92.07
2023-04-18T06:32:54.689Z,92.17
2023-04-18T06:33:54.617Z,91.98
2023-04-18T06:34:54.602Z,92.09
2023-04-18T06:35:54.585Z,92.27
2023-04-18T06:36:54.597Z,92.31
2023-04-18T06:37:54.565Z,92.23
2023-04-18T06:38:54.539Z,91.87
2023-04-18T06:39:56.729Z,91.83
2023-04-18T06:40:54.528Z,91.79
2023-04-18T06:41:54.523Z,91.72
2023-04-18T06:42:54.540Z,91.75
2023-04-18T06:44:03.271Z,91.51
2023-04-18T06:44:54.528Z,91.41
2023-04-18T06:45:54.497Z,91.50
2023-04-18T06:46:54.457Z,91.60
2023-04-18T06:47:54.457Z,91.91
2023-04-18T06:48:54.443Z,91.72
2023-04-18T06:49:54.409Z,91.83
2023-04-18T06:50:54.401Z,91.78
2023-04-18T06:51:54.404Z,91.88
2023-04-18T06:52:54.380Z,91.66
2023-04-18T06:53:54.356Z,91.81
2023-04-18T06:54:54.389Z,91.83
2023-04-18T06:55:54.337Z,91.77
2023-04-18T06:56:54.344Z,91.60
2023-04-18T06:57:54.307Z,91.56
2023-04-18T06:58:54.297Z,91.33
2023-04-18T06:59:54.285Z,91.34
2023-04-18T07:00:54.334Z,91.37
2023-04-18T07:01:54.293Z,91.25
2023-04-18T07:02:54.319Z,91.00
2023-04-18T07:03:54.354Z,90.86
2023-04-18T07:04:54.225Z,90.79
2023-04-18T07:05:54.191Z,90.84
2023-04-18T07:06:54.217Z,90.41
2023-04-18T07:07:54.200Z,90.44
2023-04-18T07:08:54.521Z,89.96
2023-04-18T07:09:54.145Z,89.24
2023-04-18T07:10:54.132Z,89.25
2023-04-18T07:11:54.150Z,89.29
2023-04-18T07:12:54.179Z,89.51
2023-04-18T07:13:54.088Z,89.27
2023-04-18T07:14:54.078Z,89.48
2023-04-18T07:15:54.072Z,89.63
2023-04-18T07:16:54.097Z,89.66
2023-04-18T07:17:54.075Z,89.57
2023-04-18T07:18:54.061Z,89.46
2023-04-18T07:19:54.051Z,89.61
2023-04-18T07:20:54.005Z,89.54
2023-04-18T07:21:54.001Z,89.71
2023-04-18T07:22:53.996Z,89.46
2023-04-18T07:23:53.962Z,89.14
2023-04-18T07:24:54.002Z,89.14
2023-04-18T07:25:53.945Z,89.12
2023-04-18T07:26:55.144Z,89.33
2023-04-18T07:27:53.904Z,89.25
2023-04-18T07:28:53.945Z,89.20
2023-04-18T07:29:53.879Z,89.12
2023-04-18T07:30:53.946Z,89.18
2023-04-18T07:31:53.880Z,88.68
2023-04-18T07:32:53.917Z,88.70
2023-04-18T07:33:53.867Z,88.48
2023-04-18T07:34:53.839Z,88.48
2023-04-18T07:35:53.836Z,88.71
2023-04-18T07:36:53.821Z,88.70
2023-04-18T07:37:53.849Z,88.52
2023-04-18T07:38:53.788Z,88.01
2023-04-18T07:39:53.779Z,88.12
2023-04-18T07:40:53.764Z,88.14
2023-04-18T07:41:53.757Z,88.32
2023-04-18T07:42:53.765Z,88.34
2023-04-18T07:43:53.791Z,88.21
2023-04-18T07:44:53.711Z,87.75
2023-04-18T07:45:53.766Z,88.13
2023-04-18T07:46:53.677Z,88.24
2023-04-18T07:47:53.705Z,88.27
2023-04-18T07:48:53.721Z,88.33
2023-04-18T07:49:53.654Z,88.63
2023-04-18T07:50:53.611Z,88.21
2023-04-18T07:51:53.611Z,88.48
2023-04-18T07:52:53.605Z,88.69
2023-04-18T07:53:53.608Z,88.87
2023-04-18T07:54:53.565Z,88.23
2023-04-18T07:55:53.547Z,87.53
2023-04-18T07:56:53.577Z,87.26
2023-04-18T07:57:53.540Z,86.87
2023-04-18T07:58:53.544Z,86.38
2023-04-18T07:59:53.500Z,85.96
2023-04-18T08:00:53.487Z,85.78
2023-04-18T08:01:53.502Z,85.48
2023-04-18T08:02:53.628Z,85.32
2023-04-18T08:03:53.594Z,85.30
2023-04-18T08:04:53.778Z,85.51
2023-04-18T08:05:53.464Z,85.58
2023-04-18T08:06:53.415Z,86.04
2023-04-18T08:07:53.404Z,86.04
2023-04-18T08:08:53.383Z,86.24
2023-04-18T08:09:53.395Z,86.07
2023-04-18T08:10:53.377Z,85.99
2023-04-18T08:11:53.353Z,85.48
2023-04-18T08:12:53.447Z,86.20
2023-04-18T08:13:53.334Z,85.97
2023-04-18T08:14:53.405Z,85.91
2023-04-18T08:15:53.348Z,85.86
2023-04-18T08:16:53.332Z,85.77
2023-04-18T08:17:53.303Z,86.53
2023-04-18T08:18:53.266Z,86.35
2023-04-18T08:19:53.296Z,85.68
2023-04-18T08:20:53.246Z,86.09
2023-04-18T08:21:53.223Z,86.30
2023-04-18T08:23:06.312Z,86.18
2023-04-18T08:23:53.212Z,86.80
2023-04-18T08:25:53.175Z,84.47
2023-04-18T08:26:53.148Z,84.12
2023-04-18T08:27:53.255Z,84.57
2023-04-18T08:28:53.145Z,84.94
2023-04-18T08:29:53.115Z,85.66
2023-04-18T08:30:53.108Z,85.71
2023-04-18T08:31:53.168Z,86.03
2023-04-18T08:32:53.178Z,86.20
2023-04-18T08:33:53.133Z,86.41
2023-04-18T08:34:53.083Z,85.64
2023-04-18T08:35:53.040Z,85.44
2023-04-18T08:36:53.064Z,85.52
2023-04-18T08:37:53.047Z,85.33
2023-04-18T08:38:53.010Z,85.18
2023-04-18T08:39:53.056Z,85.32
2023-04-18T08:40:52.986Z,85.94
2023-04-18T08:41:52.965Z,86.12
2023-04-18T08:42:52.969Z,86.53
2023-04-18T08:43:53.843Z,87.06
2023-04-18T08:44:52.931Z,86.60
2023-04-18T08:45:53.036Z,86.95
2023-04-18T08:46:52.916Z,86.73
2023-04-18T08:47:53.072Z,86.68
2023-04-18T08:48:52.881Z,86.55
2023-04-18T08:49:52.875Z,86.39
2023-04-18T08:50:52.879Z,86.48
2023-04-18T08:51:52.857Z,86.30
2023-04-18T08:52:52.842Z,85.92
2023-04-18T08:53:52.832Z,86.21
2023-04-18T08:54:52.814Z,85.71
2023-04-18T08:55:52.829Z,85.55
2023-04-18T08:56:52.772Z,85.51
2023-04-18T08:57:52.788Z,85.60
2023-04-18T08:58:52.765Z,85.93
2023-04-18T08:59:52.735Z,86.29
2023-04-18T09:00:52.795Z,85.40
2023-04-18T09:01:52.884Z,85.84
2023-04-18T09:02:52.785Z,86.17
2023-04-18T09:03:52.816Z,85.88
2023-04-18T09:04:52.774Z,86.01
2023-04-18T09:05:52.672Z,85.83
2023-04-18T09:06:52.740Z,85.42
2023-04-18T09:07:52.665Z,85.81
2023-04-18T09:08:52.642Z,86.16
2023-04-18T09:09:52.672Z,85.60
2023-04-18T09:10:52.687Z,85.10
2023-04-18T09:11:52.575Z,85.09
2023-04-18T09:12:52.625Z,85.00
2023-04-18T09:13:52.619Z,84.99
2023-04-18T09:14:52.539Z,84.58
2023-04-18T09:15:52.562Z,84.87
2023-04-18T09:16:52.628Z,85.01
2023-04-18T09:17:52.654Z,85.13
2023-04-18T09:18:52.521Z,84.72
2023-04-18T09:19:52.505Z,84.71
2023-04-18T09:20:52.502Z,84.40
2023-04-18T09:21:52.473Z,84.35
2023-04-18T09:22:52.460Z,84.34
2023-04-18T09:23:52.455Z,84.05
2023-04-18T09:24:52.494Z,83.70
2023-04-18T09:25:52.417Z,82.68
2023-04-18T09:26:52.417Z,82.83
2023-04-18T09:27:52.387Z,83.65
2023-04-18T09:28:53.834Z,83.54
2023-04-18T09:29:52.358Z,83.22
2023-04-18T09:30:52.430Z,83.22
2023-04-18T09:31:52.327Z,82.57
2023-04-18T09:32:52.410Z,82.74
2023-04-18T09:33:52.307Z,82.76
2023-04-18T09:34:52.272Z,82.50
2023-04-18T09:35:52.288Z,82.13
2023-04-18T09:36:52.287Z,82.60
2023-04-18T09:37:52.284Z,81.88
2023-04-18T09:38:55.374Z,81.43
2023-04-18T09:39:52.244Z,81.26
2023-04-18T09:40:52.234Z,80.40
2023-04-18T09:41:52.224Z,79.67
2023-04-18T09:42:52.208Z,80.38
2023-04-18T09:43:52.210Z,77.02
2023-04-18T09:44:52.155Z,76.34
2023-04-18T09:45:52.175Z,77.09
2023-04-18T09:46:52.141Z,74.61
2023-04-18T09:47:52.168Z,74.27
2023-04-18T09:48:52.122Z,74.77
2023-04-18T09:49:52.132Z,75.82
2023-04-18T09:50:52.105Z,75.98
2023-04-18T09:51:52.135Z,76.53
2023-04-18T09:52:52.122Z,76.19
2023-04-18T09:53:52.056Z,75.91
2023-04-18T09:54:52.036Z,76.77
2023-04-18T09:55:52.026Z,77.10
2023-04-18T09:56:51.985Z,75.23
2023-04-18T09:57:52.013Z,75.46
2023-04-18T09:58:52.013Z,75.50
2023-04-18T09:59:51.960Z,74.82
2023-04-18T10:00:51.986Z,75.04
2023-04-18T10:01:51.974Z,74.40
2023-04-18T10:02:52.004Z,74.00
2023-04-18T10:03:52.032Z,73.85
2023-04-18T10:04:52.060Z,74.11
2023-04-18T10:05:51.933Z,74.58
2023-04-18T10:06:51.931Z,74.14
2023-04-18T10:07:51.855Z,74.48
2023-04-18T10:08:51.882Z,74.47
2023-04-18T10:09:51.830Z,75.06
2023-04-18T10:10:51.871Z,74.80
2023-04-18T10:11:51.801Z,74.23
2023-04-18T10:12:51.861Z,74.78
2023-04-18T10:13:51.810Z,74.13
2023-04-18T10:14:51.862Z,74.71
2023-04-18T10:15:51.833Z,74.17
2023-04-18T10:16:51.761Z,75.13
2023-04-18T10:18:03.459Z,75.09
2023-04-18T10:18:51.802Z,73.64
2023-04-18T10:19:51.748Z,74.27
2023-04-18T10:20:51.690Z,73.65
2023-04-18T10:21:51.691Z,73.34
2023-04-18T10:22:51.721Z,73.09
2023-04-18T10:23:51.665Z,73.27
2023-04-18T10:24:51.712Z,72.50
2023-04-18T10:25:51.706Z,72.83
2023-04-18T10:26:51.645Z,72.42
2023-04-18T10:27:51.609Z,72.93
2023-04-18T10:28:51.608Z,72.81
2023-04-18T10:29:51.651Z,72.89
2023-04-18T10:30:51.604Z,70.93
2023-04-18T10:31:51.709Z,69.30
2023-04-18T10:32:51.613Z,67.89
2023-04-18T10:34:03.313Z,66.66
2023-04-18T10:34:51.594Z,67.08
2023-04-18T10:35:51.561Z,67.50
2023-04-18T10:36:51.506Z,67.54
2023-04-18T10:37:52.439Z,68.02
2023-04-18T10:38:51.483Z,67.99
2023-04-18T10:39:51.513Z,66.46
2023-04-18T10:40:51.446Z,66.10
2023-04-18T10:41:51.741Z,65.92
2023-04-18T10:42:51.431Z,66.48
2023-04-18T10:43:51.487Z,67.29
2023-04-18T10:44:51.408Z,68.20
2023-04-18T10:45:51.409Z,66.49
2023-04-18T10:46:51.494Z,64.84
2023-04-18T10:47:51.481Z,64.24
2023-04-18T10:48:51.368Z,65.50
2023-04-18T10:49:51.394Z,66.21
2023-04-18T10:50:51.352Z,65.59
2023-04-18T10:51:51.320Z,66.37
2023-04-18T10:52:51.315Z,67.31
2023-04-18T10:53:51.316Z,68.63
2023-04-18T10:54:51.293Z,68.31
2023-04-18T10:55:51.311Z,68.74
2023-04-18T10:56:51.280Z,69.16
2023-04-18T10:57:51.257Z,69.61
2023-04-18T10:58:51.535Z,69.42
2023-04-18T10:59:51.240Z,68.67
2023-04-18T11:00:51.267Z,67.79
2023-04-18T11:01:51.207Z,68.48
2023-04-18T11:02:51.394Z,68.76
2023-04-18T11:03:51.237Z,69.82
2023-04-18T11:04:51.158Z,70.79
2023-04-18T11:05:51.172Z,70.06
2023-04-18T11:06:51.152Z,69.85
2023-04-18T11:07:51.169Z,69.98
2023-04-18T11:08:51.133Z,69.58
2023-04-18T11:09:51.103Z,67.75
2023-04-18T11:10:51.076Z,67.00
2023-04-18T11:11:51.101Z,66.70
2023-04-18T11:12:51.099Z,67.75
2023-04-18T11:13:51.065Z,67.09
2023-04-18T11:14:51.048Z,67.09
2023-04-18T11:15:51.015Z,67.39
2023-04-18T11:16:51.122Z,68.51
2023-04-18T11:17:51.190Z,67.11
2023-04-18T11:18:51.101Z,68.23
2023-04-18T11:19:50.994Z,66.72
2023-04-18T11:20:51.007Z,64.97
2023-04-18T11:21:50.991Z,65.30
2023-04-18T11:22:50.949Z,65.28
2023-04-18T11:23:50.944Z,65.46
2023-04-18T11:24:50.960Z,66.23
2023-04-18T11:25:50.956Z,66.74
2023-04-18T11:26:50.904Z,67.81
2023-04-18T11:27:50.869Z,67.86
2023-04-18T11:28:50.902Z,67.34
2023-04-18T11:29:50.901Z,66.11
2023-04-18T11:30:50.900Z,66.14
2023-04-18T11:31:50.863Z,67.25
2023-04-18T11:32:50.822Z,65.88
2023-04-18T11:33:50.806Z,64.90
2023-04-18T11:34:50.797Z,65.47
2023-04-18T11:35:50.778Z,67.00
2023-04-18T11:36:50.754Z,66.92
2023-04-18T11:37:50.761Z,66.51
2023-04-18T11:38:50.727Z,67.06
2023-04-18T11:39:50.789Z,67.08
2023-04-18T11:40:50.983Z,65.99
2023-04-18T11:41:50.722Z,66.09
2023-04-18T11:42:50.712Z,66.28
2023-04-18T11:43:50.680Z,66.29
2023-04-18T11:44:50.672Z,67.01
2023-04-18T11:45:50.782Z,67.39
2023-04-18T11:46:50.653Z,66.99
2023-04-18T11:47:50.693Z,66.54
2023-04-18T11:48:50.677Z,66.90
2023-04-18T11:49:50.659Z,66.71
2023-04-18T11:50:50.675Z,65.48
2023-04-18T11:51:50.564Z,65.58
2023-04-18T11:52:50.578Z,62.82
2023-04-18T11:53:50.608Z,60.36
2023-04-18T11:54:50.541Z,60.97
2023-04-18T11:55:50.515Z,62.05
2023-04-18T11:56:50.523Z,64.31
2023-04-18T11:57:50.496Z,64.70
2023-04-18T11:58:50.519Z,63.52
2023-04-18T11:59:50.504Z,62.56
2023-04-18T12:00:50.464Z,62.55
2023-04-18T12:01:50.445Z,62.84
2023-04-18T12:02:50.611Z,63.25
2023-04-18T12:03:50.818Z,61.99
2023-04-18T12:04:50.737Z,63.42
2023-04-18T12:05:50.616Z,63.83
2023-04-18T12:06:51.983Z,60.73
2023-04-18T12:07:50.370Z,59.62
2023-04-18T12:08:51.232Z,61.08
2023-04-18T12:09:50.368Z,61.04
2023-04-18T12:10:50.361Z,62.46
2023-04-18T12:11:50.318Z,62.54
2023-04-18T12:12:50.344Z,63.40
2023-04-18T12:13:50.328Z,63.50
2023-04-18T12:14:50.298Z,62.63
2023-04-18T12:15:50.302Z,63.32
2023-04-18T12:16:50.314Z,64.02
2023-04-18T12:17:50.297Z,65.25
2023-04-18T12:18:50.238Z,64.62
2023-04-18T12:19:50.239Z,64.42
2023-04-18T12:20:50.574Z,64.73
2023-04-18T12:21:50.230Z,64.32
2023-04-18T12:22:50.224Z,64.64
2023-04-18T12:23:50.181Z,64.32
2023-04-18T12:24:50.181Z,63.85
2023-04-18T12:25:50.145Z,64.44
2023-04-18T12:26:50.140Z,63.80
2023-04-18T12:27:50.137Z,63.52
2023-04-18T12:28:50.174Z,63.65
2023-04-18T12:29:50.148Z,65.15
2023-04-18T12:30:50.078Z,63.44
2023-04-18T12:31:50.131Z,62.93
2023-04-18T12:32:50.174Z,62.86
2023-04-18T12:33:50.069Z,62.98
2023-04-18T12:34:50.076Z,62.41
2023-04-18T12:35:50.018Z,62.27
2023-04-18T12:36:49.996Z,62.99
2023-04-18T12:37:50.003Z,63.85
2023-04-18T12:38:50.003Z,63.21
2023-04-18T12:39:49.992Z,64.18
2023-04-18T12:40:49.968Z,63.62
2023-04-18T12:41:50.159Z,64.22
2023-04-18T12:42:49.940Z,63.22
2023-04-18T12:43:49.963Z,61.97
2023-04-18T12:44:49.943Z,62.41
2023-04-18T12:45:49.930Z,61.41
2023-04-18T12:46:49.912Z,62.47
2023-04-18T12:47:49.942Z,62.50
2023-04-18T12:48:49.850Z,63.01
2023-04-18T12:49:49.838Z,60.87
2023-04-18T12:50:49.858Z,61.52
2023-04-18T12:51:49.833Z,62.03
2023-04-18T12:52:49.830Z,63.46
2023-04-18T12:53:49.817Z,62.62